createdAt,value
2023-04-06T00:00:37.405Z,78105.44
2023-04-06T00:03:17.814Z,78109.50
2023-04-06T00:05:45.818Z,78113.56
2023-04-06T00:08:12.740Z,78105.44
2023-04-06T00:10:40.154Z,78105.44
2023-04-06T00:13:08.614Z,78105.44
2023-04-06T00:15:36.416Z,78107.47
2023-04-06T00:18:03.765Z,78101.38
2023-04-06T00:20:31.444Z,78109.50
2023-04-06T00:22:58.576Z,78109.50
2023-04-06T00:25:26.642Z,78107.47
2023-04-06T00:27:53.706Z,78101.38
2023-04-06T00:30:21.325Z,78101.38
2023-04-06T00:32:48.273Z,78101.38
2023-04-06T00:35:16.794Z,78097.34
2023-04-06T00:37:43.653Z,78093.28
2023-04-06T00:40:11.372Z,78097.34
2023-04-06T00:42:38.704Z,78089.22
2023-04-06T00:45:06.211Z,78097.34
2023-04-06T00:47:34.255Z,78103.41
2023-04-06T00:50:01.653Z,78085.16
2023-04-06T00:52:29.166Z,78093.28
2023-04-06T00:54:56.394Z,78097.34
2023-04-06T00:57:23.615Z,78087.19
2023-04-06T00:59:55.665Z,78093.28
2023-04-06T01:02:23.443Z,78089.22
2023-04-06T01:04:55.306Z,78093.28
2023-04-06T01:07:28.292Z,78097.34
2023-04-06T01:10:06.473Z,78089.22
2023-04-06T01:12:35.664Z,78081.09
2023-04-06T01:15:07.399Z,78089.22
2023-04-06T01:17:39.293Z,78095.31
2023-04-06T01:20:12.588Z,78081.09
2023-04-06T01:22:39.792Z,78083.13
2023-04-06T01:25:08.353Z,78081.09
2023-04-06T01:27:44.218Z,78077.06
2023-04-06T01:30:46.696Z,78075.03
2023-04-06T01:33:32.107Z,78077.06
2023-04-06T01:36:04.217Z,78068.94
2023-04-06T01:38:31.857Z,78070.97
2023-04-06T01:40:59.254Z,78077.06
2023-04-06T01:43:31.022Z,78073.00
2023-04-06T01:46:03.739Z,78077.06
2023-04-06T01:48:34.854Z,78064.88
2023-04-06T01:51:09.110Z,78068.94
2023-04-06T01:53:45.296Z,78064.88
2023-04-06T01:56:13.312Z,78064.88
2023-04-06T01:58:47.300Z,78064.88
2023-04-06T02:01:17.504Z,78048.66
2023-04-06T02:03:52.166Z,78056.78
2023-04-06T02:06:20.126Z,78062.84
2023-04-06T02:08:47.209Z,78054.75
2023-04-06T02:11:14.637Z,78056.78
2023-04-06T02:13:46.570Z,78056.78
2023-04-06T02:16:14.244Z,78052.72
2023-04-06T02:18:41.181Z,78052.72
2023-04-06T02:21:08.702Z,78048.66
2023-04-06T02:23:35.866Z,78046.63
2023-04-06T02:26:03.485Z,78032.44
2023-04-06T02:28:30.720Z,78040.56
2023-04-06T02:30:57.922Z,78036.50
2023-04-06T02:33:27.706Z,78032.44
2023-04-06T02:35:55.091Z,78028.38
2023-04-06T02:38:22.024Z,78032.44
2023-04-06T02:40:49.452Z,78036.50
2023-04-06T02:43:20.869Z,78032.44
2023-04-06T02:45:50.559Z,78036.50
2023-04-06T02:48:18.774Z,78040.56
2023-04-06T02:50:46.083Z,78036.50
2023-04-06T02:53:13.663Z,78038.53
2023-04-06T02:55:41.135Z,78038.53
2023-04-06T02:58:08.692Z,78048.66
2023-04-06T03:00:45.755Z,78052.72
2023-04-06T03:03:13.312Z,78060.81
2023-04-06T03:05:41.896Z,78060.81
2023-04-06T03:08:10.762Z,78064.88
2023-04-06T03:10:45.945Z,78064.88
2023-04-06T03:13:14.422Z,78060.81
2023-04-06T03:15:51.002Z,78068.94
2023-04-06T03:18:25.214Z,78073.00
2023-04-06T03:20:55.110Z,78068.94
2023-04-06T03:23:26.400Z,78070.97
2023-04-06T03:25:58.632Z,78077.06
2023-04-06T03:28:25.843Z,78079.09
2023-04-06T03:30:59.418Z,78079.09
2023-04-06T03:34:02.326Z,78085.16
2023-04-06T03:36:36.288Z,78081.09
2023-04-06T03:39:04.861Z,78085.16
2023-04-06T03:41:35.590Z,78089.22
2023-04-06T03:44:22.992Z,78097.34
2023-04-06T03:46:50.418Z,78095.31
2023-04-06T03:49:18.209Z,78105.44
2023-04-06T03:51:49.059Z,78101.38
2023-04-06T03:54:16.688Z,78105.44
2023-04-06T03:56:43.916Z,78113.56
2023-04-06T03:59:11.454Z,78109.50
2023-04-06T04:01:40.366Z,78105.44
2023-04-06T04:04:07.752Z,78109.50
2023-04-06T04:06:34.944Z,78111.53
2023-04-06T04:09:02.137Z,78117.63
2023-04-06T04:11:29.311Z,78105.44
2023-04-06T04:13:58.581Z,78113.56
2023-04-06T04:16:25.923Z,78105.44
2023-04-06T04:18:53.118Z,78097.34
2023-04-06T04:21:20.300Z,78097.34
2023-04-06T04:23:47.876Z,78093.28
2023-04-06T04:26:15.050Z,78093.28
2023-04-06T04:28:44.712Z,78099.34
2023-04-06T04:31:12.401Z,78089.22
2023-04-06T04:33:40.466Z,78097.34
2023-04-06T04:36:13.248Z,78105.44
2023-04-06T04:38:43.707Z,78097.34
2023-04-06T04:41:12.024Z,78081.09
2023-04-06T04:43:41.943Z,78077.06
2023-04-06T04:46:09.365Z,78070.97
2023-04-06T04:48:42.440Z,78066.91
2023-04-06T04:51:09.856Z,78056.78
2023-04-06T04:53:54.999Z,78050.69
2023-04-06T04:56:26.836Z,78052.72
2023-04-06T04:58:59.063Z,78044.59
2023-04-06T05:01:29.181Z,78044.59
2023-04-06T05:03:56.823Z,78030.41
2023-04-06T05:06:24.229Z,78036.50
2023-04-06T05:08:51.577Z,78040.56
2023-04-06T05:11:19.143Z,78038.53
2023-04-06T05:13:54.551Z,78036.50
2023-04-06T05:16:25.214Z,78040.56
2023-04-06T05:18:53.935Z,78044.59
2023-04-06T05:21:21.371Z,78042.56
2023-04-06T05:23:56.691Z,78040.56
2023-04-06T05:26:25.186Z,78036.50
2023-04-06T05:28:56.141Z,78038.53
2023-04-06T05:31:24.180Z,78040.56
2023-04-06T05:33:52.043Z,78040.56
2023-04-06T05:36:30.081Z,78030.41
2023-04-06T05:38:57.789Z,78008.09
2023-04-06T05:41:35.706Z,78008.09
2023-04-06T05:44:03.462Z,77995.94
2023-04-06T05:46:31.970Z,77981.75
2023-04-06T05:49:00.915Z,77959.44
2023-04-06T05:51:32.377Z,77963.50
2023-04-06T05:54:00.511Z,77959.44
2023-04-06T05:56:28.884Z,77951.31
2023-04-06T05:58:56.016Z,77967.53
2023-04-06T06:01:28.571Z,77951.31
2023-04-06T06:03:56.039Z,77939.16
2023-04-06T06:06:28.949Z,77931.03
2023-04-06T06:09:09.042Z,77929.00
2023-04-06T06:11:43.227Z,77922.94
2023-04-06T06:14:13.347Z,77918.88
2023-04-06T06:16:42.633Z,77906.72
2023-04-06T06:19:13.300Z,77910.75
2023-04-06T06:21:41.000Z,77902.66
2023-04-06T06:24:09.119Z,77914.81
2023-04-06T06:26:38.336Z,77908.72
2023-04-06T06:29:08.351Z,77904.69
2023-04-06T06:31:39.065Z,77908.72
2023-04-06T06:34:06.858Z,77882.38
2023-04-06T06:36:37.353Z,77870.22
2023-04-06T06:39:08.367Z,77870.22
2023-04-06T06:41:36.717Z,77862.09
2023-04-06T06:44:05.134Z,77860.06
2023-04-06T06:46:33.123Z,77862.09
2023-04-06T06:49:01.031Z,77849.94
2023-04-06T06:51:28.272Z,77851.97
2023-04-06T06:53:56.149Z,77849.94
2023-04-06T06:56:23.260Z,77853.97
2023-04-06T06:58:52.669Z,77851.97
2023-04-06T07:01:20.478Z,77841.81
2023-04-06T07:03:48.319Z,77839.78
2023-04-06T07:06:16.280Z,77829.66
2023-04-06T07:08:43.330Z,77813.44
2023-04-06T07:11:11.259Z,77813.44
2023-04-06T07:13:39.380Z,77815.44
2023-04-06T07:16:06.911Z,77823.56
2023-04-06T07:18:36.137Z,77809.38
2023-04-06T07:21:04.402Z,77803.28
2023-04-06T07:23:31.568Z,77793.16
2023-04-06T07:25:58.868Z,77805.31
2023-04-06T07:28:26.058Z,77797.19
2023-04-06T07:30:56.141Z,77793.16
2023-04-06T07:33:23.825Z,77780.97
2023-04-06T07:35:53.789Z,77772.88
2023-04-06T07:38:22.926Z,77795.19
2023-04-06T07:40:52.053Z,77809.38
2023-04-06T07:43:19.587Z,77809.38
2023-04-06T07:45:47.111Z,77789.09
2023-04-06T07:48:17.451Z,77809.38
2023-04-06T07:50:46.774Z,77801.25
2023-04-06T07:53:15.208Z,77801.25
2023-04-06T07:55:44.085Z,77785.03
2023-04-06T07:58:11.799Z,77805.31
2023-04-06T08:00:39.313Z,77780.97
2023-04-06T08:03:06.430Z,77776.94
2023-04-06T08:05:34.054Z,77768.81
2023-04-06T08:08:01.437Z,77762.72
2023-04-06T08:10:29.183Z,77730.28
2023-04-06T08:12:56.132Z,77720.16
2023-04-06T08:15:23.519Z,77703.94
2023-04-06T08:17:50.569Z,77699.88
2023-04-06T08:20:18.232Z,77703.94
2023-04-06T08:22:45.257Z,77736.38
2023-04-06T08:25:12.996Z,77772.88
2023-04-06T08:27:40.000Z,77748.53
2023-04-06T08:30:08.345Z,77736.38
2023-04-06T08:32:35.316Z,77736.38
2023-04-06T08:35:02.940Z,77736.38
2023-04-06T08:37:30.000Z,77748.53
2023-04-06T08:39:58.553Z,77774.91
2023-04-06T08:42:27.383Z,77785.03
2023-04-06T08:44:56.918Z,77797.19
2023-04-06T08:47:24.980Z,77809.38
2023-04-06T08:49:54.771Z,77803.28
2023-04-06T08:52:22.240Z,77789.09
2023-04-06T08:54:49.785Z,77785.03
2023-04-06T08:57:17.788Z,77797.19
2023-04-06T08:59:46.506Z,77791.13
2023-04-06T09:02:18.842Z,77793.16
2023-04-06T09:04:49.387Z,77785.03
2023-04-06T09:07:17.134Z,77795.19
2023-04-06T09:09:48.838Z,77797.19
2023-04-06T09:12:29.434Z,77780.97
2023-04-06T09:14:58.855Z,77785.03
2023-04-06T09:17:31.417Z,77793.16
2023-04-06T09:19:59.419Z,77785.03
2023-04-06T09:22:28.134Z,77768.81
2023-04-06T09:24:55.978Z,77762.72
2023-04-06T09:27:38.182Z,77772.88
2023-04-06T09:30:14.066Z,77772.88
2023-04-06T09:32:53.511Z,77768.81
2023-04-06T09:35:22.226Z,77768.81
2023-04-06T09:37:51.283Z,77764.75
2023-04-06T09:40:20.207Z,77780.97
2023-04-06T09:42:48.582Z,77793.16
2023-04-06T09:45:15.914Z,77783.00
2023-04-06T09:47:47.196Z,77805.31
2023-04-06T09:50:17.105Z,77793.16
2023-04-06T09:52:52.731Z,77785.03
2023-04-06T09:55:41.261Z,77797.19
2023-04-06T09:58:13.064Z,77805.31
2023-04-06T10:01:03.009Z,77805.31
2023-04-06T10:03:53.443Z,77797.19
2023-04-06T10:06:24.202Z,77797.19
2023-04-06T10:08:52.726Z,77793.16
2023-04-06T10:11:20.337Z,77780.97
2023-04-06T10:13:49.962Z,77760.69
2023-04-06T10:16:18.701Z,77760.69
2023-04-06T10:18:52.291Z,77772.88
2023-04-06T10:21:29.050Z,77780.97
2023-04-06T10:24:02.296Z,77805.31
2023-04-06T10:26:29.826Z,77813.44
2023-04-06T10:29:03.620Z,77817.47
2023-04-06T10:31:31.143Z,77821.53
2023-04-06T10:33:59.856Z,77821.53
2023-04-06T10:36:29.692Z,77811.41
2023-04-06T10:38:59.998Z,77817.47
2023-04-06T10:41:34.255Z,77827.63
2023-04-06T10:44:02.316Z,77821.53
2023-04-06T10:46:31.586Z,77817.47
2023-04-06T10:48:58.928Z,77817.47
2023-04-06T10:51:28.967Z,77813.44
2023-04-06T10:53:59.001Z,77813.44
2023-04-06T10:56:29.020Z,77801.25
2023-04-06T10:58:57.196Z,77793.16
2023-04-06T11:01:29.049Z,77785.03
2023-04-06T11:04:01.302Z,77785.03
2023-04-06T11:06:31.731Z,77764.75
2023-04-06T11:08:59.480Z,77768.81
2023-04-06T11:11:28.186Z,77762.72
2023-04-06T11:13:57.838Z,77756.66
2023-04-06T11:16:27.819Z,77752.59
2023-04-06T11:23:27.554Z,77752.59
2023-04-06T11:25:55.306Z,77748.53
2023-04-06T11:28:22.446Z,77752.59
2023-04-06T11:30:50.119Z,77752.59
2023-04-06T11:33:26.287Z,77748.53
2023-04-06T11:35:57.941Z,77736.38
2023-04-06T11:38:24.919Z,77730.28
2023-04-06T11:40:55.518Z,77728.25
2023-04-06T11:43:31.634Z,77720.16
2023-04-06T11:46:04.889Z,77710.00
2023-04-06T11:48:32.563Z,77712.03
2023-04-06T11:51:06.032Z,77699.88
2023-04-06T11:53:34.573Z,77703.94
2023-04-06T11:56:02.017Z,77703.94
2023-04-06T11:58:30.899Z,77693.78
2023-04-06T12:01:05.040Z,77691.75
2023-04-06T12:03:32.443Z,77679.59
2023-04-06T12:05:59.955Z,77659.31
2023-04-06T12:08:27.391Z,77659.31
2023-04-06T12:10:55.001Z,77649.19
2023-04-06T12:13:22.255Z,77628.91
2023-04-06T12:15:51.682Z,77634.97
2023-04-06T12:18:21.107Z,77618.75
2023-04-06T12:20:48.601Z,77614.69
2023-04-06T12:23:15.700Z,77610.66
2023-04-06T12:25:43.777Z,77604.56
2023-04-06T12:28:11.604Z,77610.66
2023-04-06T12:30:39.468Z,77614.69
2023-04-06T12:33:06.763Z,77620.78
2023-04-06T12:35:38.407Z,77618.75
2023-04-06T12:38:06.019Z,77618.75
2023-04-06T12:40:38.218Z,77622.81
2023-04-06T12:43:05.769Z,77614.69
2023-04-06T12:45:33.864Z,77618.75
2023-04-06T12:48:01.311Z,77614.69
2023-04-06T12:50:28.788Z,77598.47
2023-04-06T12:52:56.305Z,77610.66
2023-04-06T12:55:23.691Z,77612.69
2023-04-06T12:57:51.263Z,77606.59
2023-04-06T13:00:19.367Z,77600.50
2023-04-06T13:02:48.426Z,77610.66
2023-04-06T13:05:20.241Z,77610.66
2023-04-06T13:07:48.295Z,77602.53
2023-04-06T13:10:15.801Z,77602.53
2023-04-06T13:12:43.838Z,77610.66
2023-04-06T13:15:11.728Z,77610.66
2023-04-06T13:17:39.375Z,77616.72
2023-04-06T13:20:07.804Z,77606.59
2023-04-06T13:22:34.801Z,77602.53
2023-04-06T13:25:02.240Z,77622.81
2023-04-06T13:27:29.644Z,77612.69
2023-04-06T13:29:57.238Z,77618.75
2023-04-06T13:32:24.561Z,77626.88
2023-04-06T13:34:55.210Z,77626.88
2023-04-06T13:37:22.463Z,77620.78
2023-04-06T13:39:50.282Z,77626.88
2023-04-06T13:42:17.414Z,77622.81
2023-04-06T13:44:44.630Z,77614.69
2023-04-06T13:47:11.984Z,77602.53
2023-04-06T13:49:39.706Z,77602.53
2023-04-06T13:52:07.054Z,77594.44
2023-04-06T13:54:34.650Z,77594.44
2023-04-06T13:57:02.368Z,77602.53
2023-04-06T13:59:34.536Z,77600.50
2023-04-06T14:02:10.641Z,77600.50
2023-04-06T14:04:40.484Z,77606.59
2023-04-06T14:07:10.054Z,77594.44
2023-04-06T14:09:37.541Z,77610.66
2023-04-06T14:12:04.684Z,77604.56
2023-04-06T14:14:32.026Z,77602.53
2023-04-06T14:16:59.252Z,77600.50
2023-04-06T14:19:27.387Z,77594.44
2023-04-06T14:21:54.646Z,77582.25
2023-04-06T14:24:21.858Z,77590.38
2023-04-06T14:26:49.051Z,77590.38
2023-04-06T14:29:16.905Z,77598.47
2023-04-06T14:31:47.199Z,77598.47
2023-04-06T14:34:14.835Z,77602.53
2023-04-06T14:36:41.931Z,77602.53
2023-04-06T14:39:10.945Z,77600.50
2023-04-06T14:41:38.284Z,77598.47
2023-04-06T14:44:06.716Z,77594.44
2023-04-06T14:46:33.888Z,77586.31
2023-04-06T14:49:01.776Z,77570.09
2023-04-06T14:51:29.094Z,77566.03
2023-04-06T14:53:56.737Z,77570.09
2023-04-06T14:56:24.894Z,77564.00
2023-04-06T14:58:53.011Z,77566.03
2023-04-06T15:01:21.930Z,77555.91
2023-04-06T15:03:50.259Z,77570.09
2023-04-06T15:06:20.502Z,77557.94
2023-04-06T15:08:50.030Z,77549.81
2023-04-06T15:11:17.279Z,77561.97
2023-04-06T15:13:45.108Z,77561.97
2023-04-06T15:16:12.525Z,77561.97
2023-04-06T15:18:40.095Z,77570.09
2023-04-06T15:21:08.107Z,77566.03
2023-04-06T15:23:36.237Z,77570.09
2023-04-06T15:26:03.529Z,77574.16
2023-04-06T15:28:31.617Z,77566.03
2023-04-06T15:30:58.628Z,77568.06
2023-04-06T15:33:28.123Z,77561.97
2023-04-06T15:35:55.915Z,77557.94
2023-04-06T15:38:23.749Z,77557.94
2023-04-06T15:40:50.789Z,77553.88
2023-04-06T15:43:18.322Z,77551.84
2023-04-06T15:45:45.480Z,77555.91
2023-04-06T15:48:13.352Z,77553.88
2023-04-06T15:50:40.523Z,77549.81
2023-04-06T15:53:08.356Z,77561.97
2023-04-06T15:55:35.698Z,77549.81
2023-04-06T15:58:03.079Z,77553.88
2023-04-06T16:00:30.209Z,77557.94
2023-04-06T16:02:58.063Z,77553.88
2023-04-06T16:05:28.332Z,77549.81
2023-04-06T16:07:57.293Z,77545.75
2023-04-06T16:10:24.659Z,77545.75
2023-04-06T16:12:52.591Z,77549.81
2023-04-06T16:15:19.674Z,77559.97
2023-04-06T16:17:47.271Z,77549.81
2023-04-06T16:20:16.114Z,77582.25
2023-04-06T16:22:43.403Z,77561.97
2023-04-06T16:25:11.630Z,77553.88
2023-04-06T16:27:38.911Z,77570.09
2023-04-06T16:30:06.709Z,77555.91
2023-04-06T16:32:34.523Z,77570.09
2023-04-06T16:35:03.344Z,77561.97
2023-04-06T16:37:31.865Z,77553.88
2023-04-06T16:39:59.600Z,77553.88
2023-04-06T16:42:27.684Z,77557.94
2023-04-06T16:44:54.967Z,77553.88
2023-04-06T16:47:24.071Z,77561.97
2023-04-06T16:49:52.372Z,77561.97
2023-04-06T16:52:19.606Z,77561.97
2023-04-06T16:54:46.934Z,77568.06
2023-04-06T16:57:15.662Z,77561.97
2023-04-06T16:59:42.827Z,77570.09
2023-04-06T17:02:10.322Z,77566.03
2023-04-06T17:04:37.767Z,77570.09
2023-04-06T17:07:06.254Z,77561.97
2023-04-06T17:12:06.644Z,77574.16
2023-04-06T17:14:33.913Z,77566.03
2023-04-06T17:17:02.469Z,77574.16
2023-04-06T17:19:29.559Z,77574.16
2023-04-06T17:21:57.531Z,77566.03
2023-04-06T17:24:25.117Z,77561.97
2023-04-06T17:26:52.266Z,77570.09
2023-04-06T17:29:19.131Z,77576.19
2023-04-06T17:31:46.428Z,77574.16
2023-04-06T17:34:13.508Z,77578.22
2023-04-06T17:36:41.107Z,77570.09
2023-04-06T17:39:08.833Z,77578.22
2023-04-06T17:41:36.856Z,77570.09
2023-04-06T17:44:04.115Z,77582.25
2023-04-06T17:46:32.108Z,77582.25
2023-04-06T17:48:59.142Z,77582.25
2023-04-06T17:51:27.426Z,77578.22
2023-04-06T17:53:54.586Z,77578.22
2023-04-06T17:56:22.240Z,77574.16
2023-04-06T18:01:19.536Z,77574.16
2023-04-06T18:03:46.562Z,77574.16
2023-04-06T18:06:15.764Z,77566.03
2023-04-06T18:08:43.437Z,77555.91
2023-04-06T18:11:18.847Z,77561.97
2023-04-06T18:13:46.490Z,77553.88
2023-04-06T18:16:16.403Z,77551.84
2023-04-06T18:18:43.682Z,77559.97
2023-04-06T18:21:10.952Z,77549.81
2023-04-06T18:23:38.413Z,77549.81
2023-04-06T18:26:06.458Z,77545.75
2023-04-06T18:28:34.224Z,77553.88
2023-04-06T18:31:02.332Z,77541.72
2023-04-06T18:33:29.457Z,77543.72
2023-04-06T18:35:56.861Z,77533.59
2023-04-06T18:38:24.357Z,77537.66
2023-04-06T18:40:51.990Z,77537.66
2023-04-06T18:43:19.378Z,77545.75
2023-04-06T18:45:46.619Z,77537.66
2023-04-06T18:48:14.120Z,77541.72
2023-04-06T18:50:41.907Z,77533.59
2023-04-06T18:53:08.839Z,77529.53
2023-04-06T18:55:36.512Z,77529.53
2023-04-06T18:58:03.833Z,77529.53
2023-04-06T19:00:31.522Z,77529.53
2023-04-06T19:02:58.983Z,77531.56
2023-04-06T19:05:26.647Z,77527.50
2023-04-06T19:07:53.468Z,77533.59
2023-04-06T19:10:21.098Z,77525.47
2023-04-06T19:12:48.990Z,77513.31
2023-04-06T19:15:16.262Z,77517.38
2023-04-06T19:17:43.291Z,77513.31
2023-04-06T19:20:10.967Z,77523.47
2023-04-06T19:22:38.216Z,77517.38
2023-04-06T19:25:06.614Z,77513.31
2023-04-06T19:27:33.914Z,77511.28
2023-04-06T19:30:01.222Z,77507.25
2023-04-06T19:32:30.314Z,77503.19
2023-04-06T19:34:59.611Z,77505.22
2023-04-06T19:37:26.815Z,77509.25
2023-04-06T19:39:54.189Z,77515.34
2023-04-06T19:42:21.836Z,77503.19
2023-04-06T19:44:49.342Z,77505.22
2023-04-06T19:47:16.372Z,77505.22
2023-04-06T19:49:44.025Z,77507.25
2023-04-06T19:52:12.503Z,77497.09
2023-04-06T19:54:41.049Z,77503.19
2023-04-06T19:57:08.252Z,77491.03
2023-04-06T19:59:35.590Z,77489.00
2023-04-06T20:02:02.687Z,77501.16
2023-04-06T20:04:30.569Z,77509.25
2023-04-06T20:06:57.916Z,77505.22
2023-04-06T20:09:25.301Z,77509.25
2023-04-06T20:11:54.211Z,77513.31
2023-04-06T20:14:22.970Z,77505.22
2023-04-06T20:16:50.997Z,77509.25
2023-04-06T20:19:18.382Z,77513.31
2023-04-06T20:21:45.401Z,77489.00
2023-04-06T20:24:12.771Z,77493.03
2023-04-06T20:26:40.172Z,77491.03
2023-04-06T20:29:07.441Z,77480.88
2023-04-06T20:31:34.673Z,77480.88
2023-04-06T20:34:02.134Z,77480.88
2023-04-06T20:36:32.521Z,77476.81
2023-04-06T20:39:00.146Z,77484.94
2023-04-06T20:41:26.991Z,77489.00
2023-04-06T20:43:54.526Z,77480.88
2023-04-06T20:46:21.770Z,77468.72
2023-04-06T20:48:49.072Z,77468.72
2023-04-06T20:51:21.276Z,77468.72
2023-04-06T20:53:48.758Z,77464.66
2023-04-06T20:56:15.814Z,77468.72
2023-04-06T20:58:43.096Z,77468.72
2023-04-06T21:01:17.396Z,77474.78
2023-04-06T21:03:45.543Z,77468.72
2023-04-06T21:06:12.734Z,77468.72
2023-04-06T21:08:40.472Z,77464.66
2023-04-06T21:11:07.631Z,77476.81
2023-04-06T21:13:34.896Z,77468.72
2023-04-06T21:16:03.247Z,77472.78
2023-04-06T21:18:34.250Z,77464.66
2023-04-06T21:21:01.504Z,77456.53
2023-04-06T21:23:28.661Z,77458.56
2023-04-06T21:25:57.422Z,77444.38
2023-04-06T21:28:26.071Z,77444.38
2023-04-06T21:30:54.841Z,77434.25
2023-04-06T21:33:22.627Z,77436.28
2023-04-06T21:35:50.325Z,77444.38
2023-04-06T21:38:17.603Z,77440.31
2023-04-06T21:40:45.052Z,77428.16
2023-04-06T21:43:12.822Z,77428.16
2023-04-06T21:45:40.282Z,77424.09
2023-04-06T21:48:07.609Z,77420.06
2023-04-06T21:50:39.506Z,77407.88
2023-04-06T21:53:07.231Z,77418.03
2023-04-06T21:55:34.208Z,77403.84
2023-04-06T21:58:01.685Z,77407.88
2023-04-06T22:00:28.458Z,77399.78
2023-04-06T22:02:56.176Z,77399.78
2023-04-06T22:05:23.744Z,77391.66
2023-04-06T22:07:52.211Z,77391.66
2023-04-06T22:10:19.785Z,77389.63
2023-04-06T22:12:49.062Z,77387.59
2023-04-06T22:15:16.585Z,77383.56
2023-04-06T22:17:43.751Z,77387.59
2023-04-06T22:20:11.252Z,77389.63
2023-04-06T22:22:38.996Z,77383.56
2023-04-06T22:25:06.542Z,77379.50
2023-04-06T22:27:33.659Z,77379.50
2023-04-06T22:30:00.626Z,77371.38
2023-04-06T22:32:28.029Z,77375.44
2023-04-06T22:34:55.448Z,77371.38
2023-04-06T22:37:22.636Z,77363.28
2023-04-06T22:39:49.484Z,77355.16
2023-04-06T22:42:16.710Z,77351.13
2023-04-06T22:44:43.582Z,77343.00
2023-04-06T22:47:12.112Z,77349.09
2023-04-06T22:49:39.422Z,77338.94
2023-04-06T22:52:06.925Z,77343.00
2023-04-06T22:54:34.199Z,77330.84
2023-04-06T22:57:02.985Z,77326.78
2023-04-06T22:59:29.941Z,77330.84
2023-04-06T23:01:57.605Z,77326.78
2023-04-06T23:04:24.716Z,77326.78
2023-04-06T23:06:52.262Z,77318.66
2023-04-06T23:09:19.132Z,77306.50
2023-04-06T23:11:46.788Z,77310.56
2023-04-06T23:14:13.947Z,77318.66
2023-04-06T23:16:41.610Z,77322.72
2023-04-06T23:19:08.525Z,77302.44
2023-04-06T23:21:36.181Z,77310.56
2023-04-06T23:24:03.306Z,77310.56
2023-04-06T23:26:31.076Z,77292.31
2023-04-06T23:28:57.962Z,77298.41
2023-04-06T23:31:25.213Z,77294.34
2023-04-06T23:33:52.327Z,77306.50
2023-04-06T23:36:19.477Z,77294.34
2023-04-06T23:38:46.357Z,77290.28
2023-04-06T23:41:16.162Z,77278.13
2023-04-06T23:43:43.204Z,77274.06
2023-04-06T23:46:10.367Z,77261.91
2023-04-06T23:48:39.624Z,77261.91
2023-04-06T23:51:06.781Z,77253.78
2023-04-06T23:53:33.580Z,77247.72
2023-04-06T23:56:00.953Z,77253.78
2023-04-06T23:58:27.836Z,77251.75
